Time;durP1;ratioP1;P1;durP2;ratioP2;P2;SDS_P1;SDS_P2;PMS_P1;PMS_P2;Temp;Humidity;BMP_temperature;BMP_pressure;BME280_temperature;BME280_humidity;BME280_pressure;Samples;Min_cycle;Max_cycle;Signal;HPM_P1;HPM_P2
2022/08/29 00:00:50;;;;;;;11.70;8.20;;;;;;;16.18;80.77;97276.16;109751;1250;60553;-65
2022/08/29 00:03:19;;;;;;;11.70;8.80;;;;;;;16.15;78.85;97275.02;109785;1250;60558;-65
2022/08/29 00:05:48;;;;;;;10.80;7.90;;;;;;;16.12;83.28;97278.51;109731;1250;72004;-66
2022/08/29 00:08:18;;;;;;;10.50;8.50;;;;;;;16.09;84.37;97282.04;109859;1250;69603;-65
2022/08/29 00:10:48;;;;;;;11.20;8.50;;;;;;;16.03;84.48;97276.77;109743;1250;68634;-65
2022/08/29 00:13:17;;;;;;;8.90;7.10;;;;;;;15.98;83.69;97273.25;110026;1249;60497;-65
2022/08/29 00:15:46;;;;;;;10.00;7.70;;;;;;;15.93;84.70;97269.84;110036;1250;60479;-66
2022/08/29 00:18:17;;;;;;;10.70;8.10;;;;;;;15.89;85.34;97272.67;110041;1250;72237;-65
2022/08/29 00:20:48;;;;;;;11.80;8.90;;;;;;;15.88;85.38;97269.75;110059;1250;68626;-65
2022/08/29 00:23:19;;;;;;;11.00;9.60;;;;;;;15.91;86.47;97268.27;110065;1250;68539;-66
2022/08/29 00:25:48;;;;;;;12.50;9.70;;;;;;;15.96;85.53;97262.52;110044;1248;60516;-65
2022/08/29 00:28:18;;;;;;;10.50;8.30;;;;;;;15.99;83.65;97260.44;110053;1250;60498;-66
2022/08/29 00:30:48;;;;;;;9.10;7.70;;;;;;;16.00;82.06;97255.95;110077;1250;72400;-65
2022/08/29 00:33:18;;;;;;;9.70;7.40;;;;;;;16.00;80.88;97255.95;110067;1249;68561;-65
2022/08/29 00:35:50;;;;;;;8.80;7.20;;;;;;;15.98;80.44;97255.43;109843;1249;69411;-65
2022/08/29 00:38:21;;;;;;;12.70;8.70;;;;;;;15.95;81.66;97257.02;110059;1250;60538;-65
2022/08/29 00:40:57;;;;;;;8.40;7.20;;;;;;;15.93;84.44;97259.16;110060;1250;60483;-65
2022/08/29 00:43:32;;;;;;;10.50;7.10;;;;;;;15.91;84.43;97256.90;110042;1249;71512;-65
2022/08/29 00:46:41;;;;;;;8.00;7.20;;;;;;;15.88;84.90;97255.73;109805;1251;69422;-65
2022/08/29 00:49:23;;;;;;;10.70;8.50;;;;;;;15.86;85.31;97256.52;109182;1257;69695;-64
2022/08/29 00:51:54;;;;;;;9.80;7.30;;;;;;;15.85;86.47;97256.56;109705;1250;60547;-64
2022/08/29 00:54:26;;;;;;;10.40;7.50;;;;;;;15.84;85.44;97257.94;109777;1250;60517;-65
2022/08/29 00:56:57;;;;;;;10.30;7.40;;;;;;;15.82;84.46;97261.25;109716;1250;72311;-65
2022/08/29 00:59:34;;;;;;;11.80;7.00;;;;;;;15.79;83.65;97258.88;109826;1249;69501;-64
2022/08/29 01:02:07;;;;;;;8.40;6.40;;;;;;;15.76;81.25;97257.52;109825;1250;69415;-64
2022/08/29 01:04:38;;;;;;;11.40;7.70;;;;;;;15.74;82.47;97253.72;109796;1248;60517;-64
2022/08/29 01:07:10;;;;;;;11.80;8.30;;;;;;;15.72;85.74;97255.12;110014;1249;60478;-64
2022/08/29 01:09:45;;;;;;;9.50;7.60;;;;;;;15.68;86.55;97250.06;110082;1247;71537;-64
2022/08/29 01:12:16;;;;;;;10.00;8.40;;;;;;;15.67;87.33;97248.80;110103;1247;69209;-65
2022/08/29 01:14:58;;;;;;;12.50;7.90;;;;;;;15.65;86.76;97247.52;110087;1247;69375;-64
2022/08/29 01:17:35;;;;;;;9.90;8.00;;;;;;;15.63;86.93;97243.55;110029;1250;60504;-64
2022/08/29 01:20:31;;;;;;;9.90;7.90;;;;;;;15.62;87.24;97242.08;110179;1247;60490;-64
2022/08/29 01:23:25;;;;;;;11.40;7.90;;;;;;;15.58;87.02;97243.12;109974;1249;71554;-64
2022/08/29 01:25:56;;;;;;;9.50;7.60;;;;;;;15.54;87.16;97243.81;110146;1245;69394;-65
2022/08/29 01:28:32;;;;;;;10.90;8.10;;;;;;;15.51;87.41;97245.41;110081;1247;68706;-65
2022/08/29 01:31:19;;;;;;;11.90;8.50;;;;;;;15.48;87.93;97245.52;110084;1248;60529;-65
2022/08/29 01:34:09;;;;;;;10.70;7.90;;;;;;;15.46;88.07;97247.98;110081;1249;60509;-64
2022/08/29 01:36:54;;;;;;;8.10;7.10;;;;;;;15.45;87.78;97250.67;110067;1247;72300;-67
2022/08/29 01:39:28;;;;;;;10.10;8.30;;;;;;;15.45;87.55;97256.34;110111;1247;68650;-65
2022/08/29 01:42:02;;;;;;;13.80;10.20;;;;;;;15.42;85.79;97256.63;110105;1247;68784;-65
2022/08/29 01:44:32;;;;;;;23.20;17.40;;;;;;;15.37;87.80;97254.27;110089;1247;60542;-66
2022/08/29 01:47:01;;;;;;;14.10;12.60;;;;;;;15.33;87.02;97256.27;110115;1247;60554;-66
2022/08/29 01:49:34;;;;;;;14.60;10.00;;;;;;;15.27;85.07;97255.35;110142;1247;72997;-64
2022/08/29 01:52:09;;;;;;;11.70;10.10;;;;;;;15.19;85.00;97254.58;110086;1247;69511;-64
2022/08/29 01:54:43;;;;;;;12.10;9.40;;;;;;;15.12;85.76;97257.30;110132;1247;69438;-65
2022/08/29 01:57:14;;;;;;;10.90;9.60;;;;;;;15.08;86.87;97257.56;110096;1247;60560;-66
2022/08/29 01:59:45;;;;;;;8.80;7.20;;;;;;;15.02;87.02;97256.13;110132;1247;60479;-65
2022/08/29 02:02:21;;;;;;;8.70;7.40;;;;;;;14.98;85.68;97256.00;110096;1247;72300;-65
2022/08/29 02:04:52;;;;;;;11.90;8.20;;;;;;;14.94;86.75;97257.09;110032;1248;68602;-64
2022/08/29 02:07:25;;;;;;;10.70;8.00;;;;;;;14.89;86.82;97256.14;110065;1247;69406;-65
2022/08/29 02:09:55;;;;;;;10.10;8.80;;;;;;;14.86;88.06;97253.76;110059;1247;60490;-66
2022/08/29 02:12:26;;;;;;;12.50;9.20;;;;;;;14.85;89.43;97257.77;110082;1247;60918;-65
2022/08/29 02:14:57;;;;;;;11.40;8.00;;;;;;;14.84;88.03;97259.98;110118;1247;71672;-65
2022/08/29 02:17:28;;;;;;;10.70;7.60;;;;;;;14.84;87.53;97259.06;110063;1247;69370;-65
2022/08/29 02:19:59;;;;;;;12.20;9.10;;;;;;;14.89;90.46;97258.80;109862;1247;69342;-65
2022/08/29 02:22:29;;;;;;;13.20;9.30;;;;;;;14.95;91.95;97261.34;110091;1247;60529;-65
2022/08/29 02:25:40;;;;;;;8.80;7.90;;;;;;;14.99;90.14;97265.20;110125;1247;60479;-66
2022/08/29 02:27:54;;;;;;;8.30;7.10;;;;;;;14.98;87.01;97269.89;110095;1247;71172;-66
2022/08/29 02:30:24;;;;;;;12.80;11.20;;;;;;;14.94;86.08;97273.02;110098;1246;68614;-65
2022/08/29 02:32:56;;;;;;;12.60;10.00;;;;;;;14.87;85.13;97279.48;110084;1247;69730;-65
2022/08/29 02:35:26;;;;;;;11.90;9.40;;;;;;;14.78;86.77;97274.85;110020;1248;60567;-65
2022/08/29 02:37:59;;;;;;;11.10;9.30;;;;;;;14.73;89.28;97274.94;110143;1247;60488;-65
2022/08/29 02:40:30;;;;;;;11.00;8.50;;;;;;;14.69;88.70;97275.50;109723;1248;72214;-64
2022/08/29 02:43:01;;;;;;;10.90;8.40;;;;;;;14.68;88.99;97282.46;109771;1248;69357;-63
2022/08/29 02:45:35;;;;;;;7.90;6.80;;;;;;;14.66;89.67;97283.32;110074;1247;69418;-64
2022/08/29 02:48:05;;;;;;;8.40;7.00;;;;;;;14.64;88.34;97286.30;110075;1247;60486;-65
2022/08/29 02:50:38;;;;;;;9.30;7.20;;;;;;;14.63;89.23;97290.40;110056;1247;60500;-67
2022/08/29 02:53:10;;;;;;;10.80;8.30;;;;;;;14.61;89.87;97295.70;110081;1247;72402;-65
2022/08/29 02:55:40;;;;;;;15.00;10.60;;;;;;;14.60;89.22;97299.33;110056;1247;68334;-65
2022/08/29 02:58:12;;;;;;;13.00;10.40;;;;;;;14.56;88.26;97299.36;110069;1247;69259;-66
2022/08/29 03:00:43;;;;;;;13.30;10.70;;;;;;;14.50;87.11;97300.41;110112;1248;60589;-64
2022/08/29 03:03:13;;;;;;;9.50;8.00;;;;;;;14.44;87.48;97302.15;110077;1247;60455;-66
2022/08/29 03:05:43;;;;;;;9.30;8.30;;;;;;;14.41;90.89;97302.61;110072;1247;71228;-66
2022/08/29 03:08:15;;;;;;;12.10;8.50;;;;;;;14.39;91.68;97305.71;110031;1247;68607;-65
2022/08/29 03:10:45;;;;;;;9.30;7.20;;;;;;;14.39;91.72;97309.73;110043;1247;69311;-67
2022/08/29 03:13:17;;;;;;;9.70;8.30;;;;;;;14.39;91.46;97312.20;110088;1247;60558;-66
2022/08/29 03:15:47;;;;;;;10.80;9.00;;;;;;;14.38;91.42;97313.42;110067;1247;60408;-64
2022/08/29 03:18:18;;;;;;;10.10;8.00;;;;;;;14.36;90.88;97311.46;110059;1247;72238;-65
2022/08/29 03:20:50;;;;;;;10.40;9.20;;;;;;;14.35;90.07;97314.88;110058;1247;69266;-64
2022/08/29 03:23:20;;;;;;;9.90;8.70;;;;;;;14.37;90.54;97316.59;110038;1247;68611;-65
2022/08/29 03:25:49;;;;;;;;;;;;;;;14.41;91.22;97322.56;110051;1247;60527;-64
2022/08/29 03:28:19;;;;;;;10.40;8.20;;;;;;;14.42;91.28;97324.95;110081;1247;60422;-66
2022/08/29 03:30:49;;;;;;;10.30;8.60;;;;;;;14.41;90.84;97324.62;110094;1247;73053;-66
2022/08/29 03:33:19;;;;;;;10.90;8.30;;;;;;;14.42;91.14;97326.70;110058;1247;69529;-64
2022/08/29 03:35:50;;;;;;;9.60;8.10;;;;;;;14.41;90.67;97326.60;110022;1247;68971;-64
2022/08/29 03:38:21;;;;;;;10.50;9.40;;;;;;;14.40;90.87;97330.88;110086;1247;60564;-65
2022/08/29 03:40:51;;;;;;;11.00;8.50;;;;;;;14.37;90.72;97335.34;110077;1247;60485;-64
2022/08/29 03:43:25;;;;;;;9.80;8.00;;;;;;;14.37;90.13;97339.61;110040;1247;72369;-64
2022/08/29 03:45:54;;;;;;;10.10;8.50;;;;;;;14.38;89.39;97339.54;110086;1247;69544;-66
2022/08/29 03:48:24;;;;;;;;;;;;;;;14.39;89.80;97343.05;110102;1247;68251;-65
2022/08/29 03:50:54;;;;;;;10.60;8.60;;;;;;;14.40;90.58;97347.02;110073;1247;60576;-65
2022/08/29 03:53:25;;;;;;;9.60;7.60;;;;;;;14.41;90.10;97351.11;110059;1247;60461;-65
2022/08/29 03:55:55;;;;;;;11.20;7.90;;;;;;;14.42;89.20;97350.35;110076;1246;72610;-64
2022/08/29 03:58:25;;;;;;;10.30;7.60;;;;;;;14.44;87.28;97348.08;110035;1249;68465;-64
2022/08/29 04:00:54;;;;;;;11.40;8.50;;;;;;;14.44;85.74;97350.37;110070;1247;69520;-64
2022/08/29 04:03:24;;;;;;;8.60;7.40;;;;;;;14.39;85.93;97352.20;110049;1247;60490;-64
2022/08/29 04:05:59;;;;;;;9.20;7.90;;;;;;;14.35;86.36;97350.11;109971;1246;60437;-64
2022/08/29 04:08:29;;;;;;;9.60;8.30;;;;;;;14.34;87.83;97350.36;110003;1249;71647;-66
2022/08/29 04:10:59;;;;;;;12.90;9.40;;;;;;;14.36;88.41;97351.61;109991;1250;68650;-64
2022/08/29 04:13:28;;;;;;;12.50;9.70;;;;;;;14.40;90.30;97352.66;110027;1248;69494;-64
2022/08/29 04:15:58;;;;;;;11.10;9.20;;;;;;;14.48;89.90;97357.70;109991;1249;60503;-64
2022/08/29 04:18:27;;;;;;;10.70;8.80;;;;;;;14.60;89.74;97358.45;109974;1249;60565;-67
2022/08/29 04:21:01;;;;;;;11.30;8.30;;;;;;;14.68;89.29;97356.09;110037;1249;70859;-65
2022/08/29 04:23:31;;;;;;;9.00;7.70;;;;;;;14.79;89.74;97358.15;110030;1249;68417;-67
2022/08/29 04:26:00;;;;;;;9.30;7.20;;;;;;;14.90;89.31;97358.55;109680;1250;68674;-64
2022/08/29 04:28:51;;;;;;;9.30;7.00;;;;;;;15.04;88.88;97362.28;109974;1249;60508;-65
2022/08/29 04:31:21;;;;;;;8.50;6.90;;;;;;;15.22;88.38;97365.02;109712;1248;60520;-64
2022/08/29 04:33:50;;;;;;;8.80;6.90;;;;;;;15.44;87.14;97366.33;110007;1249;72354;-65
2022/08/29 04:36:20;;;;;;;9.30;7.70;;;;;;;15.63;86.18;97369.70;110035;1248;69331;-66
2022/08/29 04:38:50;;;;;;;9.00;7.40;;;;;;;15.80;85.49;97374.20;110099;1249;69433;-65
2022/08/29 04:41:18;;;;;;;11.20;7.80;;;;;;;15.98;84.38;97373.70;109779;1249;60545;-65
2022/08/29 04:43:48;;;;;;;10.10;7.50;;;;;;;16.17;83.68;97372.84;110088;1250;60495;-63
2022/08/29 04:46:18;;;;;;;11.00;8.20;;;;;;;16.31;82.92;97377.55;110027;1248;71604;-66
2022/08/29 04:48:52;;;;;;;8.00;6.60;;;;;;;16.48;81.86;97373.84;110016;1248;68814;-63
2022/08/29 04:51:22;;;;;;;;;;;;;;;16.80;82.78;97375.31;109805;1248;68650;-66
2022/08/29 04:53:52;;;;;;;10.60;7.30;;;;;;;17.00;81.04;97378.94;108528;1249;1976706;-64
2022/08/29 04:56:21;;;;;;;;;;;;;;;17.19;79.35;97380.35;110023;1249;60478;-64
2022/08/29 04:58:50;;;;;;;10.10;7.10;;;;;;;17.44;80.02;97386.55;110023;1249;73262;-65
2022/08/29 05:01:23;;;;;;;11.00;6.40;;;;;;;17.68;79.58;97385.86;110030;1249;69607;-65
2022/08/29 05:03:53;;;;;;;10.60;7.70;;;;;;;17.92;79.01;97383.91;109997;1247;70156;-64
2022/08/29 05:06:23;;;;;;;7.80;6.90;;;;;;;18.08;76.45;97386.17;110023;1247;60548;-64
2022/08/29 05:08:52;;;;;;;8.40;7.10;;;;;;;18.24;75.84;97390.27;110113;1248;60483;-65
2022/08/29 05:11:29;;;;;;;11.20;7.00;;;;;;;18.19;73.98;97393.48;110048;1246;72152;-65
2022/08/29 05:14:01;;;;;;;13.30;7.30;;;;;;;18.40;73.23;97392.71;109923;1247;68817;-65
2022/08/29 05:16:33;;;;;;;11.20;7.10;;;;;;;18.60;72.93;97388.13;110074;1247;68482;-65
2022/08/29 05:19:05;;;;;;;8.50;6.40;;;;;;;18.75;71.97;97393.77;110017;1247;60567;-64
2022/08/29 05:21:36;;;;;;;9.20;6.20;;;;;;;19.06;71.65;97395.75;110080;1247;60498;-64
2022/08/29 05:24:09;;;;;;;7.30;6.00;;;;;;;19.46;71.94;97397.73;110090;1247;72954;-66
2022/08/29 05:26:42;;;;;;;8.80;7.10;;;;;;;19.80;69.13;97398.10;110076;1247;69388;-66
2022/08/29 05:29:12;;;;;;;9.90;6.70;;;;;;;20.06;68.14;97397.19;110082;1247;69454;-65
2022/08/29 05:31:41;;;;;;;8.70;6.30;;;;;;;20.31;67.05;97398.74;110018;1249;60525;-65
2022/08/29 05:34:13;;;;;;;6.70;5.50;;;;;;;20.62;67.45;97394.43;110064;1246;60479;-65
2022/08/29 05:37:09;;;;;;;8.50;5.90;;;;;;;20.99;67.14;97395.31;109995;1247;72417;-65
2022/08/29 05:39:38;;;;;;;8.20;5.40;;;;;;;21.43;66.35;97396.41;110000;1248;69389;-66
2022/08/29 05:42:09;;;;;;;9.60;6.20;;;;;;;21.78;65.74;97393.48;110085;1247;69575;-67
2022/08/29 05:44:39;;;;;;;8.80;6.20;;;;;;;21.96;62.87;97392.78;110094;1247;60545;-66
2022/08/29 05:47:10;;;;;;;10.00;6.30;;;;;;;22.23;62.07;97395.56;110072;1247;60434;-64
2022/08/29 05:49:41;;;;;;;12.70;6.50;;;;;;;22.51;62.27;97393.69;110065;1247;72568;-64
2022/08/29 05:52:12;;;;;;;8.10;6.30;;;;;;;22.85;62.33;97388.95;110085;1247;68550;-64
2022/08/29 05:54:43;;;;;;;6.80;5.70;;;;;;;23.12;59.96;97387.50;110069;1247;69985;-65
2022/08/29 05:57:15;;;;;;;7.80;6.50;;;;;;;23.45;60.26;97387.05;110048;1247;60922;-67
2022/08/29 05:59:52;;;;;;;6.30;5.70;;;;;;;23.74;59.07;97388.36;110051;1247;60500;-65
2022/08/29 06:02:21;;;;;;;6.00;5.10;;;;;;;24.05;58.23;97390.30;110071;1247;72324;-67
2022/08/29 06:04:51;;;;;;;5.90;5.20;;;;;;;24.24;56.07;97387.31;110018;1247;70303;-67
2022/08/29 06:07:20;;;;;;;7.60;5.50;;;;;;;24.46;55.06;97387.48;110038;1248;69815;-64
2022/08/29 06:09:51;;;;;;;7.70;5.30;;;;;;;24.65;53.63;97391.23;110010;1247;60564;-65
2022/08/29 06:12:20;;;;;;;6.90;5.20;;;;;;;24.83;52.61;97388.70;110130;1247;60538;-65
2022/08/29 06:14:52;;;;;;;6.80;5.40;;;;;;;25.08;53.75;97391.20;109952;1248;72333;-65
2022/08/29 06:17:21;;;;;;;7.80;5.10;;;;;;;25.27;52.64;97388.09;110017;1248;70063;-65
2022/08/29 06:19:51;;;;;;;6.10;5.00;;;;;;;25.48;51.11;97388.29;109646;1247;70019;-64
2022/08/29 06:22:21;;;;;;;6.00;4.60;;;;;;;25.59;50.29;97390.71;110028;1246;60513;-64
2022/08/29 06:24:54;;;;;;;5.80;4.50;;;;;;;25.68;50.41;97392.73;109677;1247;61062;-65
2022/08/29 06:27:26;;;;;;;6.90;4.90;;;;;;;26.09;51.04;97397.33;110084;1247;72367;-65
2022/08/29 06:29:54;;;;;;;6.60;4.20;;;;;;;26.43;50.01;97400.66;109670;1247;69471;-65
2022/08/29 06:32:29;;;;;;;5.80;4.70;;;;;;;26.68;47.58;97399.21;109989;1247;68630;-65
2022/08/29 06:34:58;;;;;;;10.10;5.00;;;;;;;26.77;45.75;97400.55;109972;1249;60613;-65
2022/08/29 06:37:27;;;;;;;6.50;4.40;;;;;;;26.69;45.89;97402.63;110101;1247;60876;-66
2022/08/29 06:39:56;;;;;;;8.30;4.80;;;;;;;26.66;46.98;97401.82;110088;1247;72143;-66
2022/08/29 06:42:25;;;;;;;6.30;4.30;;;;;;;26.71;46.43;97400.84;110073;1249;69727;-66
2022/08/29 06:44:56;;;;;;;6.30;4.50;;;;;;;26.93;46.48;97405.87;110001;1248;69403;-65
2022/08/29 06:47:25;;;;;;;7.90;4.80;;;;;;;27.25;45.30;97406.64;109998;1249;61075;-65
2022/08/29 06:49:54;;;;;;;5.90;4.80;;;;;;;27.31;44.74;97412.30;110047;1248;60472;-67
2022/08/29 06:52:23;;;;;;;5.90;4.90;;;;;;;27.09;44.58;97409.91;110045;1249;71530;-66
2022/08/29 06:54:52;;;;;;;;;;;;;;;27.13;45.09;97403.70;110048;1249;68320;-67
2022/08/29 06:57:21;;;;;;;9.30;5.60;;;;;;;27.38;44.66;97405.39;110037;1249;69228;-67
2022/08/29 06:59:49;;;;;;;7.80;5.80;;;;;;;27.25;44.29;97407.55;109827;1250;60551;-67
2022/08/29 07:02:18;;;;;;;16.70;6.10;;;;;;;27.05;45.01;97412.56;110035;1249;60542;-67
2022/08/29 07:04:47;;;;;;;;;;;;;;;26.75;45.59;97419.09;109842;1250;72444;-67
2022/08/29 07:07:16;;;;;;;7.20;5.30;;;;;;;26.69;45.35;97419.48;110031;1250;68700;-66
2022/08/29 07:09:46;;;;;;;8.00;5.70;;;;;;;26.86;45.86;97416.15;110027;1248;68447;-66
2022/08/29 07:12:15;;;;;;;7.40;4.80;;;;;;;27.11;45.84;97408.34;109775;1247;60516;-66
2022/08/29 07:14:47;;;;;;;;;;;;;;;26.93;44.70;97408.80;110018;1248;60504;-66
2022/08/29 07:17:19;;;;;;;7.40;5.10;;;;;;;27.33;44.85;97403.02;110063;1247;72775;-66
2022/08/29 07:19:53;;;;;;;9.90;5.70;;;;;;;27.81;43.89;97401.15;109699;1249;69805;-65
2022/08/29 07:22:22;;;;;;;8.40;5.00;;;;;;;27.77;42.97;97400.04;109702;1249;68616;-65
2022/08/29 07:24:52;;;;;;;6.50;4.70;;;;;;;28.08;42.26;97399.19;109951;1250;60551;-66
2022/08/29 07:27:21;;;;;;;6.90;4.60;;;;;;;28.25;41.89;97404.14;109988;1249;60510;-66
2022/08/29 07:29:50;;;;;;;11.50;6.50;;;;;;;28.37;41.91;97408.64;110002;1249;72353;-65
2022/08/29 07:32:19;;;;;;;;;;;;;;;28.49;41.19;97407.42;110033;1250;69401;-65
2022/08/29 07:34:53;;;;;;;8.10;6.40;;;;;;;27.93;41.82;97407.61;109995;1250;70042;-67
2022/08/29 07:37:23;;;;;;;6.00;4.90;;;;;;;28.28;41.84;97406.74;110028;1249;60497;-65
2022/08/29 07:39:53;;;;;;;6.60;4.80;;;;;;;28.79;41.29;97411.35;110131;1249;60499;-66
2022/08/29 07:42:22;;;;;;;6.40;4.70;;;;;;;29.16;40.37;97407.88;110015;1249;73425;-67
2022/08/29 07:44:51;;;;;;;7.10;5.60;;;;;;;29.51;39.69;97410.16;109767;1250;71000;-66
2022/08/29 07:47:19;;;;;;;8.90;5.30;;;;;;;29.23;39.02;97408.80;109959;1248;68824;-67
2022/08/29 07:49:49;;;;;;;7.70;5.80;;;;;;;28.70;40.10;97404.52;110004;1247;60481;-66
2022/08/29 07:52:18;;;;;;;7.50;5.70;;;;;;;28.36;40.84;97401.46;109890;1250;60529;-67
2022/08/29 07:54:46;;;;;;;;;;;;;;;28.16;41.26;97394.35;110018;1248;72370;-66
2022/08/29 07:57:16;;;;;;;5.60;4.80;;;;;;;28.04;42.20;97397.13;110021;1250;69698;-65
2022/08/29 07:59:45;;;;;;;8.30;5.60;;;;;;;28.23;41.37;97398.20;109996;1249;69904;-66
2022/08/29 08:02:14;;;;;;;;;;;;;;;28.11;41.53;97397.50;110048;1248;60577;-67
2022/08/29 08:04:44;;;;;;;;;;;;;;;28.37;41.92;97397.05;109763;1247;60867;-67
2022/08/29 08:07:15;;;;;;;8.30;5.60;;;;;;;29.10;41.00;97400.48;110040;1249;71407;-65
2022/08/29 08:09:44;;;;;;;6.60;4.60;;;;;;;29.27;39.63;97398.84;110033;1247;69987;-65
2022/08/29 08:12:15;;;;;;;6.00;4.20;;;;;;;29.85;39.38;97395.62;109996;1249;69860;-66
2022/08/29 08:14:44;;;;;;;6.10;4.80;;;;;;;30.37;39.10;97395.70;110037;1249;60573;-66
2022/08/29 08:17:12;;;;;;;7.10;4.80;;;;;;;30.83;37.65;97398.29;110044;1248;60484;-67
2022/08/29 08:19:44;;;;;;;9.10;5.30;;;;;;;30.96;37.34;97391.70;110046;1247;72965;-67
2022/08/29 08:22:13;;;;;;;6.30;5.20;;;;;;;30.46;37.22;97391.65;109931;1248;68649;-66
2022/08/29 08:24:43;;;;;;;7.20;5.60;;;;;;;30.46;37.61;97394.27;110070;1247;70130;-65
2022/08/29 08:27:12;;;;;;;5.30;4.50;;;;;;;30.53;37.07;97392.89;110059;1246;60559;-68
2022/08/29 08:29:43;;;;;;;6.40;4.80;;;;;;;30.65;37.38;97388.39;109649;1248;60555;-67
2022/08/29 08:32:12;;;;;;;4.60;4.10;;;;;;;30.97;36.84;97386.73;110110;1247;72433;-68
2022/08/29 08:34:41;;;;;;;4.80;4.00;;;;;;;31.23;36.63;97380.45;110059;1249;68451;-68
2022/08/29 08:37:11;;;;;;;5.50;4.20;;;;;;;31.85;36.51;97377.26;109744;1250;68501;-67
2022/08/29 08:39:46;;;;;;;6.70;4.90;;;;;;;32.51;34.82;97376.96;110125;1249;60486;-66
2022/08/29 08:42:41;;;;;;;10.20;5.10;;;;;;;32.85;33.41;97379.98;110027;1249;60498;-67
2022/08/29 08:45:17;;;;;;;5.30;4.30;;;;;;;32.80;33.50;97378.80;110046;1249;72396;-68
2022/08/29 08:47:51;;;;;;;8.10;4.80;;;;;;;32.74;33.43;97384.78;110024;1248;69209;-66
2022/08/29 08:50:46;;;;;;;8.20;4.80;;;;;;;32.18;33.70;97381.98;109999;1250;69401;-67
2022/08/29 08:53:40;;;;;;;5.20;4.10;;;;;;;32.36;33.71;97384.05;110013;1249;60516;-67
2022/08/29 08:56:18;;;;;;;6.40;4.30;;;;;;;33.00;33.32;97381.17;109765;1250;60497;-67
2022/08/29 08:59:01;;;;;;;7.60;4.90;;;;;;;33.40;32.51;97378.43;110033;1249;72480;-66
2022/08/29 09:01:38;;;;;;;8.80;5.10;;;;;;;32.59;33.26;97379.80;110036;1247;69215;-67
2022/08/29 09:04:25;;;;;;;7.00;4.50;;;;;;;32.62;33.34;97378.33;110004;1248;69862;-67
2022/08/29 09:07:45;;;;;;;6.30;5.10;;;;;;;32.30;33.60;97378.41;110039;1247;60570;-69
2022/08/29 09:10:31;;;;;;;5.30;4.80;;;;;;;32.77;32.79;97378.23;109542;1250;61021;-68
2022/08/29 09:13:20;;;;;;;11.70;5.50;;;;;;;32.40;33.08;97372.10;110039;1247;72566;-68
2022/08/29 09:15:55;;;;;;;5.40;4.30;;;;;;;32.64;33.86;97373.53;110116;1247;69783;-68
2022/08/29 09:18:31;;;;;;;5.00;3.80;;;;;;;32.70;32.77;97373.12;110033;1248;68766;-68
2022/08/29 09:21:18;;;;;;;5.50;5.00;;;;;;;33.12;32.65;97375.55;109783;1247;60499;-68
2022/08/29 09:24:13;;;;;;;6.80;5.10;;;;;;;32.82;32.63;97374.03;110093;1247;60501;-67
2022/08/29 09:26:42;;;;;;;7.40;5.60;;;;;;;32.79;32.89;97375.96;110075;1247;71572;-68
2022/08/29 09:29:12;;;;;;;6.00;5.00;;;;;;;33.11;32.38;97372.95;109653;1250;68611;-64
2022/08/29 09:31:42;;;;;;;7.00;5.10;;;;;;;33.11;31.98;97373.60;109986;1249;70023;-67
2022/08/29 09:34:31;;;;;;;8.30;5.40;;;;;;;33.57;31.62;97374.13;110022;1249;60880;-69
2022/08/29 09:37:27;;;;;;;4.40;3.80;;;;;;;33.85;31.19;97368.09;110243;1248;60466;-67
2022/08/29 09:40:12;;;;;;;5.10;3.90;;;;;;;34.88;30.81;97373.86;110088;1249;72969;-68
2022/08/29 09:43:00;;;;;;;4.30;3.90;;;;;;;35.55;29.00;97365.36;110066;1247;69670;-68
2022/08/29 09:45:29;;;;;;;6.90;4.90;;;;;;;36.12;27.36;97366.75;109695;1247;68453;-67
2022/08/29 09:48:15;;;;;;;6.70;4.90;;;;;;;35.93;27.56;97367.50;110046;1247;60556;-68
2022/08/29 09:50:44;;;;;;;8.90;4.10;;;;;;;36.01;26.95;97368.30;110075;1247;60488;-68
2022/08/29 09:53:22;;;;;;;6.60;4.30;;;;;;;36.49;26.66;97367.17;110026;1249;72361;-68
2022/08/29 09:55:52;;;;;;;5.70;4.90;;;;;;;37.02;26.15;97364.99;110047;1247;68774;-68
2022/08/29 09:58:22;;;;;;;6.80;5.10;;;;;;;36.95;26.04;97363.98;109711;1247;69837;-68
2022/08/29 10:01:10;;;;;;;5.90;4.90;;;;;;;36.60;26.63;97358.81;110065;1247;60555;-66
2022/08/29 10:04:01;;;;;;;7.80;4.80;;;;;;;36.68;26.94;97362.23;110090;1247;60890;-67
2022/08/29 10:06:38;;;;;;;6.50;4.50;;;;;;;37.10;26.38;97361.45;110080;1247;72371;-68
2022/08/29 10:09:27;;;;;;;6.70;4.60;;;;;;;37.53;26.19;97361.89;110040;1247;69506;-68
2022/08/29 10:12:13;;;;;;;7.00;4.70;;;;;;;38.02;25.80;97362.62;110036;1247;69570;-68
2022/08/29 10:14:52;;;;;;;9.00;4.40;;;;;;;36.83;26.34;97362.14;110056;1247;60492;-68
2022/08/29 10:20:45;;;;;;;8.50;5.10;;;;;;;37.43;25.62;97358.63;110035;1247;70651;-67
2022/08/29 10:23:20;;;;;;;8.20;4.90;;;;;;;37.38;25.30;97352.02;109680;1248;68444;-67
2022/08/29 10:25:50;;;;;;;6.10;4.80;;;;;;;36.86;25.98;97351.20;110034;1247;67884;-68
2022/08/29 10:28:48;;;;;;;5.00;4.30;;;;;;;36.91;25.76;97353.95;110033;1247;60576;-67
2022/08/29 10:31:34;;;;;;;7.30;5.00;;;;;;;37.75;25.43;97352.70;109732;1248;60530;-68
2022/08/29 10:34:47;;;;;;;6.60;5.60;;;;;;;37.48;25.40;97349.14;109993;1248;72620;-65
2022/08/29 10:37:51;;;;;;;5.60;4.70;;;;;;;36.94;25.44;97344.81;109797;1250;69205;-68
2022/08/29 10:40:41;;;;;;;6.40;4.90;;;;;;;36.78;26.29;97345.30;109774;1250;69397;-67
2022/08/29 10:43:28;;;;;;;6.00;5.40;;;;;;;37.06;26.14;97349.64;110033;1249;60575;-67
2022/08/29 10:46:01;;;;;;;5.70;5.10;;;;;;;37.30;25.74;97343.48;109794;1249;60495;-66
2022/08/29 10:48:38;;;;;;;7.30;4.50;;;;;;;37.63;24.75;97344.08;110027;1249;72240;-66
2022/08/29 10:51:16;;;;;;;6.10;5.50;;;;;;;37.79;24.51;97345.55;109879;1249;69841;-66
2022/08/29 10:53:55;;;;;;;7.10;6.40;;;;;;;37.71;24.85;97342.64;109998;1248;68665;-67
2022/08/29 10:56:43;;;;;;;5.80;4.80;;;;;;;36.53;25.95;97345.38;109984;1249;60525;-67
2022/08/29 10:59:22;;;;;;;;;;;;;;;36.61;25.85;97341.19;109989;1247;60571;-67
2022/08/29 11:02:11;;;;;;;8.10;5.50;;;;;;;36.67;25.45;97339.23;110067;1247;73397;-67
2022/08/29 11:04:49;;;;;;;5.80;5.00;;;;;;;37.53;25.26;97326.35;110121;1247;69154;-68
2022/08/29 11:07:38;;;;;;;5.40;4.80;;;;;;;37.81;25.37;97326.39;110084;1247;68740;-67
2022/08/29 11:10:23;;;;;;;6.50;5.00;;;;;;;38.59;24.01;97328.85;110080;1247;60511;-67
2022/08/29 11:13:00;;;;;;;5.20;4.10;;;;;;;39.29;23.77;97322.70;110039;1250;60953;-67
2022/08/29 11:15:51;;;;;;;5.40;4.40;;;;;;;39.99;23.64;97319.55;109999;1249;73255;-67
2022/08/29 11:18:45;;;;;;;5.10;4.50;;;;;;;40.06;22.14;97318.94;110080;1247;68757;-67
2022/08/29 11:21:21;;;;;;;5.40;4.80;;;;;;;39.69;22.93;97317.26;110050;1247;69496;-68
2022/08/29 11:23:50;;;;;;;7.20;5.50;;;;;;;39.86;22.75;97313.11;110129;1247;60571;-67
2022/08/29 11:26:40;;;;;;;7.40;5.50;;;;;;;39.87;22.73;97318.02;110090;1247;60495;-67
2022/08/29 11:29:38;;;;;;;7.20;4.70;;;;;;;39.15;22.65;97316.35;110073;1247;73031;-67
2022/08/29 11:32:22;;;;;;;8.80;5.20;;;;;;;40.10;23.02;97312.81;110088;1247;68722;-68
2022/08/29 11:35:22;;;;;;;8.90;5.40;;;;;;;40.10;22.43;97311.11;110135;1247;69527;-69
2022/08/29 11:37:54;;;;;;;5.70;4.20;;;;;;;40.13;22.73;97307.55;110091;1247;60500;-67
2022/08/29 11:40:39;;;;;;;5.10;4.20;;;;;;;39.36;22.79;97311.54;110121;1247;60941;-67
2022/08/29 11:43:36;;;;;;;5.80;5.20;;;;;;;39.29;23.01;97308.49;110125;1247;73597;-68
2022/08/29 11:46:08;;;;;;;6.60;5.30;;;;;;;39.72;22.97;97302.00;110102;1246;70015;-67
2022/08/29 11:48:46;;;;;;;8.50;5.50;;;;;;;39.99;22.82;97295.66;110132;1247;69441;-67
2022/08/29 11:51:36;;;;;;;6.30;4.60;;;;;;;40.34;22.97;97296.83;110052;1247;60561;-67
2022/08/29 11:54:23;;;;;;;6.10;4.40;;;;;;;40.46;22.87;97297.34;110133;1247;60472;-67
2022/08/29 11:57:01;;;;;;;5.70;4.30;;;;;;;40.59;22.60;97299.17;110106;1247;71448;-67
2022/08/29 11:59:47;;;;;;;;;;;;;;;40.18;23.17;97296.45;110125;1247;69845;-67
2022/08/29 12:02:31;;;;;;;5.70;4.50;;;;;;;39.65;23.59;97295.17;110058;1247;69235;-66